sensor_id;sensor_type;location;lat;lon;timestamp;temperature;humidity
24664;DHT22;12791;50.992;13.788;2022-07-03T00:00:21;17.70;72.20
24664;DHT22;12791;50.992;13.788;2022-07-03T00:02:49;17.70;72.30
24664;DHT22;12791;50.992;13.788;2022-07-03T00:05:16;17.70;72.40
24664;DHT22;12791;50.992;13.788;2022-07-03T00:07:42;17.70;72.50
24664;DHT22;12791;50.992;13.788;2022-07-03T00:10:09;17.60;72.60
24664;DHT22;12791;50.992;13.788;2022-07-03T00:12:36;17.60;72.70
24664;DHT22;12791;50.992;13.788;2022-07-03T00:15:04;17.40;73.00
24664;DHT22;12791;50.992;13.788;2022-07-03T00:17:30;17.30;73.50
24664;DHT22;12791;50.992;13.788;2022-07-03T00:19:58;17.30;73.40
24664;DHT22;12791;50.992;13.788;2022-07-03T00:22:26;17.40;73.30
24664;DHT22;12791;50.992;13.788;2022-07-03T00:25:01;17.40;73.20
24664;DHT22;12791;50.992;13.788;2022-07-03T00:27:28;17.40;72.90
24664;DHT22;12791;50.992;13.788;2022-07-03T00:29:59;17.40;72.70
24664;DHT22;12791;50.992;13.788;2022-07-03T00:32:27;17.40;72.70
24664;DHT22;12791;50.992;13.788;2022-07-03T00:34:57;17.40;72.90
24664;DHT22;12791;50.992;13.788;2022-07-03T00:37:24;17.40;72.80
24664;DHT22;12791;50.992;13.788;2022-07-03T00:39:51;17.30;72.80
24664;DHT22;12791;50.992;13.788;2022-07-03T00:42:18;17.30;72.90
24664;DHT22;12791;50.992;13.788;2022-07-03T00:44:47;17.30;73.20
24664;DHT22;12791;50.992;13.788;2022-07-03T00:47:15;17.30;73.50
24664;DHT22;12791;50.992;13.788;2022-07-03T00:49:45;17.20;73.60
24664;DHT22;12791;50.992;13.788;2022-07-03T00:52:15;17.20;74.10
24664;DHT22;12791;50.992;13.788;2022-07-03T00:54:44;17.10;74.30
24664;DHT22;12791;50.992;13.788;2022-07-03T00:57:14;17.10;74.80
24664;DHT22;12791;50.992;13.788;2022-07-03T00:59:42;17.10;75.20
24664;DHT22;12791;50.992;13.788;2022-07-03T01:02:15;17.00;75.20
24664;DHT22;12791;50.992;13.788;2022-07-03T01:04:50;17.00;75.30
24664;DHT22;12791;50.992;13.788;2022-07-03T01:07:28;17.00;75.50
24664;DHT22;12791;50.992;13.788;2022-07-03T01:10:03;17.00;75.70
24664;DHT22;12791;50.992;13.788;2022-07-03T01:12:40;17.00;76.00
24664;DHT22;12791;50.992;13.788;2022-07-03T01:15:14;16.90;75.80
24664;DHT22;12791;50.992;13.788;2022-07-03T01:17:47;16.90;75.60
24664;DHT22;12791;50.992;13.788;2022-07-03T01:20:19;16.90;75.60
24664;DHT22;12791;50.992;13.788;2022-07-03T01:22:54;16.90;75.90
24664;DHT22;12791;50.992;13.788;2022-07-03T01:25:25;16.80;75.90
24664;DHT22;12791;50.992;13.788;2022-07-03T01:27:59;16.80;75.70
24664;DHT22;12791;50.992;13.788;2022-07-03T01:30:32;16.80;75.70
24664;DHT22;12791;50.992;13.788;2022-07-03T01:33:02;16.80;75.70
24664;DHT22;12791;50.992;13.788;2022-07-03T01:35:33;16.80;75.50
24664;DHT22;12791;50.992;13.788;2022-07-03T01:38:03;16.70;75.20
24664;DHT22;12791;50.992;13.788;2022-07-03T01:40:32;16.70;75.30
24664;DHT22;12791;50.992;13.788;2022-07-03T01:43:02;16.70;75.50
24664;DHT22;12791;50.992;13.788;2022-07-03T01:45:31;16.60;75.40
24664;DHT22;12791;50.992;13.788;2022-07-03T01:47:58;16.50;75.50
24664;DHT22;12791;50.992;13.788;2022-07-03T01:50:26;16.40;75.60
24664;DHT22;12791;50.992;13.788;2022-07-03T01:52:54;16.30;75.80
24664;DHT22;12791;50.992;13.788;2022-07-03T01:55:23;16.20;76.30
24664;DHT22;12791;50.992;13.788;2022-07-03T01:57:50;16.10;77.00
24664;DHT22;12791;50.992;13.788;2022-07-03T02:00:20;16.00;77.80
24664;DHT22;12791;50.992;13.788;2022-07-03T02:02:54;15.90;78.60
24664;DHT22;12791;50.992;13.788;2022-07-03T02:05:30;15.80;79.30
24664;DHT22;12791;50.992;13.788;2022-07-03T02:08:06;15.80;80.00
24664;DHT22;12791;50.992;13.788;2022-07-03T02:10:37;15.80;80.00
24664;DHT22;12791;50.992;13.788;2022-07-03T02:13:07;15.80;80.00
24664;DHT22;12791;50.992;13.788;2022-07-03T02:15:42;15.80;80.20
24664;DHT22;12791;50.992;13.788;2022-07-03T02:18:11;15.80;80.50
24664;DHT22;12791;50.992;13.788;2022-07-03T02:20:48;15.80;80.50
24664;DHT22;12791;50.992;13.788;2022-07-03T02:23:20;15.80;80.50
24664;DHT22;12791;50.992;13.788;2022-07-03T02:25:51;15.90;80.30
24664;DHT22;12791;50.992;13.788;2022-07-03T02:28:28;15.90;80.00
24664;DHT22;12791;50.992;13.788;2022-07-03T02:31:01;15.80;79.90
24664;DHT22;12791;50.992;13.788;2022-07-03T02:33:30;15.80;80.30
24664;DHT22;12791;50.992;13.788;2022-07-03T02:35:57;15.80;80.50
24664;DHT22;12791;50.992;13.788;2022-07-03T02:38:24;15.80;80.70
24664;DHT22;12791;50.992;13.788;2022-07-03T02:40:57;15.80;80.80
24664;DHT22;12791;50.992;13.788;2022-07-03T02:43:33;15.80;80.60
24664;DHT22;12791;50.992;13.788;2022-07-03T02:46:05;15.70;80.60
24664;DHT22;12791;50.992;13.788;2022-07-03T02:48:50;15.80;81.30
24664;DHT22;12791;50.992;13.788;2022-07-03T02:51:21;15.80;81.00
24664;DHT22;12791;50.992;13.788;2022-07-03T02:53:56;15.80;80.90
24664;DHT22;12791;50.992;13.788;2022-07-03T02:56:32;15.90;80.80
24664;DHT22;12791;50.992;13.788;2022-07-03T02:59:06;15.90;80.50
24664;DHT22;12791;50.992;13.788;2022-07-03T03:01:46;15.90;80.30
24664;DHT22;12791;50.992;13.788;2022-07-03T03:04:20;15.90;80.30
24664;DHT22;12791;50.992;13.788;2022-07-03T03:06:53;15.90;80.00
24664;DHT22;12791;50.992;13.788;2022-07-03T03:09:26;15.80;80.20
24664;DHT22;12791;50.992;13.788;2022-07-03T03:11:56;15.70;80.50
24664;DHT22;12791;50.992;13.788;2022-07-03T03:14:31;15.70;80.60
24664;DHT22;12791;50.992;13.788;2022-07-03T03:17:05;15.80;80.80
24664;DHT22;12791;50.992;13.788;2022-07-03T03:19:39;15.80;80.50
24664;DHT22;12791;50.992;13.788;2022-07-03T03:22:14;15.80;80.40
24664;DHT22;12791;50.992;13.788;2022-07-03T03:24:42;15.80;80.40
24664;DHT22;12791;50.992;13.788;2022-07-03T03:27:09;15.80;80.60
24664;DHT22;12791;50.992;13.788;2022-07-03T03:29:36;15.70;80.90
24664;DHT22;12791;50.992;13.788;2022-07-03T03:32:05;15.60;81.00
24664;DHT22;12791;50.992;13.788;2022-07-03T03:34:32;15.60;81.40
24664;DHT22;12791;50.992;13.788;2022-07-03T03:37:00;15.60;81.90
24664;DHT22;12791;50.992;13.788;2022-07-03T03:39:27;15.70;82.00
24664;DHT22;12791;50.992;13.788;2022-07-03T03:41:54;15.70;81.70
24664;DHT22;12791;50.992;13.788;2022-07-03T03:44:21;15.70;81.50
24664;DHT22;12791;50.992;13.788;2022-07-03T03:46:48;15.80;81.30
24664;DHT22;12791;50.992;13.788;2022-07-03T03:49:17;15.80;81.30
24664;DHT22;12791;50.992;13.788;2022-07-03T03:51:44;15.80;81.30
24664;DHT22;12791;50.992;13.788;2022-07-03T03:54:10;15.80;81.50
24664;DHT22;12791;50.992;13.788;2022-07-03T03:56:37;15.90;81.40
24664;DHT22;12791;50.992;13.788;2022-07-03T03:59:04;15.90;81.60
24664;DHT22;12791;50.992;13.788;2022-07-03T04:01:30;15.90;81.80
24664;DHT22;12791;50.992;13.788;2022-07-03T04:03:57;15.90;82.00
24664;DHT22;12791;50.992;13.788;2022-07-03T04:06:26;15.90;82.00
24664;DHT22;12791;50.992;13.788;2022-07-03T04:08:52;15.90;82.00
24664;DHT22;12791;50.992;13.788;2022-07-03T04:11:19;16.00;82.20
24664;DHT22;12791;50.992;13.788;2022-07-03T04:13:46;15.90;81.90
24664;DHT22;12791;50.992;13.788;2022-07-03T04:16:12;15.90;81.90
24664;DHT22;12791;50.992;13.788;2022-07-03T04:18:39;15.90;82.20
24664;DHT22;12791;50.992;13.788;2022-07-03T04:21:06;15.90;82.50
24664;DHT22;12791;50.992;13.788;2022-07-03T04:23:34;15.80;82.80
24664;DHT22;12791;50.992;13.788;2022-07-03T04:26:04;15.90;83.30
24664;DHT22;12791;50.992;13.788;2022-07-03T04:28:31;15.90;83.10
24664;DHT22;12791;50.992;13.788;2022-07-03T04:30:58;16.10;83.10
24664;DHT22;12791;50.992;13.788;2022-07-03T04:33:25;16.10;82.60
24664;DHT22;12791;50.992;13.788;2022-07-03T04:35:51;16.20;82.70
24664;DHT22;12791;50.992;13.788;2022-07-03T04:38:18;16.20;82.70
24664;DHT22;12791;50.992;13.788;2022-07-03T04:40:46;16.20;83.00
24664;DHT22;12791;50.992;13.788;2022-07-03T04:43:13;16.20;83.20
24664;DHT22;12791;50.992;13.788;2022-07-03T04:45:42;16.20;83.20
24664;DHT22;12791;50.992;13.788;2022-07-03T04:48:08;16.30;83.20
24664;DHT22;12791;50.992;13.788;2022-07-03T04:50:35;16.40;82.90
24664;DHT22;12791;50.992;13.788;2022-07-03T04:53:02;16.60;82.70
24664;DHT22;12791;50.992;13.788;2022-07-03T04:55:28;16.70;82.20
24664;DHT22;12791;50.992;13.788;2022-07-03T04:57:56;16.80;82.20
24664;DHT22;12791;50.992;13.788;2022-07-03T05:00:23;16.90;82.30
24664;DHT22;12791;50.992;13.788;2022-07-03T05:02:49;17.00;82.10
24664;DHT22;12791;50.992;13.788;2022-07-03T05:05:16;17.10;82.10
24664;DHT22;12791;50.992;13.788;2022-07-03T05:07:43;17.20;81.40
24664;DHT22;12791;50.992;13.788;2022-07-03T05:10:10;17.30;80.80
24664;DHT22;12791;50.992;13.788;2022-07-03T05:12:36;17.40;80.40
24664;DHT22;12791;50.992;13.788;2022-07-03T05:15:05;17.50;80.00
24664;DHT22;12791;50.992;13.788;2022-07-03T05:17:33;17.60;79.70
24664;DHT22;12791;50.992;13.788;2022-07-03T05:20:00;17.70;79.40
24664;DHT22;12791;50.992;13.788;2022-07-03T05:22:41;17.80;79.00
24664;DHT22;12791;50.992;13.788;2022-07-03T05:25:08;17.90;78.50
24664;DHT22;12791;50.992;13.788;2022-07-03T05:27:35;18.00;77.80
24664;DHT22;12791;50.992;13.788;2022-07-03T05:30:05;18.10;77.30
24664;DHT22;12791;50.992;13.788;2022-07-03T05:32:32;18.20;76.40
24664;DHT22;12791;50.992;13.788;2022-07-03T05:34:58;18.20;76.10
24664;DHT22;12791;50.992;13.788;2022-07-03T05:37:26;18.30;75.90
24664;DHT22;12791;50.992;13.788;2022-07-03T05:39:53;18.40;75.70
24664;DHT22;12791;50.992;13.788;2022-07-03T05:42:19;18.50;75.60
24664;DHT22;12791;50.992;13.788;2022-07-03T05:44:46;18.50;75.50
24664;DHT22;12791;50.992;13.788;2022-07-03T05:47:14;18.60;75.00
24664;DHT22;12791;50.992;13.788;2022-07-03T05:49:40;18.70;74.70
24664;DHT22;12791;50.992;13.788;2022-07-03T05:52:07;18.70;74.60
24664;DHT22;12791;50.992;13.788;2022-07-03T05:54:34;18.80;74.40
24664;DHT22;12791;50.992;13.788;2022-07-03T05:57:00;18.80;74.00
24664;DHT22;12791;50.992;13.788;2022-07-03T05:59:27;18.90;73.80
24664;DHT22;12791;50.992;13.788;2022-07-03T06:01:54;18.90;74.00
24664;DHT22;12791;50.992;13.788;2022-07-03T06:04:22;19.00;73.70
24664;DHT22;12791;50.992;13.788;2022-07-03T06:06:48;19.10;73.30
24664;DHT22;12791;50.992;13.788;2022-07-03T06:09:15;19.10;73.00
24664;DHT22;12791;50.992;13.788;2022-07-03T06:11:42;19.20;73.10
24664;DHT22;12791;50.992;13.788;2022-07-03T06:14:08;19.30;73.30
24664;DHT22;12791;50.992;13.788;2022-07-03T06:16:35;19.30;72.70
24664;DHT22;12791;50.992;13.788;2022-07-03T06:19:01;19.30;72.20
24664;DHT22;12791;50.992;13.788;2022-07-03T06:21:29;19.40;72.30
24664;DHT22;12791;50.992;13.788;2022-07-03T06:23:56;19.50;72.60
24664;DHT22;12791;50.992;13.788;2022-07-03T06:26:23;19.50;72.70
24664;DHT22;12791;50.992;13.788;2022-07-03T06:28:49;19.50;72.40
24664;DHT22;12791;50.992;13.788;2022-07-03T06:31:16;19.70;72.40
24664;DHT22;12791;50.992;13.788;2022-07-03T06:33:42;19.70;72.30
24664;DHT22;12791;50.992;13.788;2022-07-03T06:36:09;19.80;72.30
24664;DHT22;12791;50.992;13.788;2022-07-03T06:38:37;19.90;72.30
24664;DHT22;12791;50.992;13.788;2022-07-03T06:41:04;20.00;71.90
24664;DHT22;12791;50.992;13.788;2022-07-03T06:43:30;20.10;72.00
24664;DHT22;12791;50.992;13.788;2022-07-03T06:45:57;20.20;72.20
24664;DHT22;12791;50.992;13.788;2022-07-03T06:48:24;20.30;72.30
24664;DHT22;12791;50.992;13.788;2022-07-03T06:50:50;20.40;71.90
24664;DHT22;12791;50.992;13.788;2022-07-03T06:53:17;20.50;71.50
24664;DHT22;12791;50.992;13.788;2022-07-03T06:55:45;20.50;71.40
24664;DHT22;12791;50.992;13.788;2022-07-03T06:58:11;20.60;71.40
24664;DHT22;12791;50.992;13.788;2022-07-03T07:00:40;20.70;70.50
24664;DHT22;12791;50.992;13.788;2022-07-03T07:03:06;20.80;71.20
24664;DHT22;12791;50.992;13.788;2022-07-03T07:05:33;20.90;70.20
24664;DHT22;12791;50.992;13.788;2022-07-03T07:08:00;21.00;70.10
24664;DHT22;12791;50.992;13.788;2022-07-03T07:10:26;21.10;69.90
24664;DHT22;12791;50.992;13.788;2022-07-03T07:12:54;21.20;68.60
24664;DHT22;12791;50.992;13.788;2022-07-03T07:15:21;21.30;67.90
24664;DHT22;12791;50.992;13.788;2022-07-03T07:17:48;21.40;67.90
24664;DHT22;12791;50.992;13.788;2022-07-03T07:20:14;21.40;67.30
24664;DHT22;12791;50.992;13.788;2022-07-03T07:22:41;21.40;67.60
24664;DHT22;12791;50.992;13.788;2022-07-03T07:25:08;21.60;66.40
24664;DHT22;12791;50.992;13.788;2022-07-03T07:27:35;21.70;66.30
24664;DHT22;12791;50.992;13.788;2022-07-03T07:30:04;21.80;65.10
24664;DHT22;12791;50.992;13.788;2022-07-03T07:32:31;22.00;64.50
24664;DHT22;12791;50.992;13.788;2022-07-03T07:34:57;22.20;63.90
24664;DHT22;12791;50.992;13.788;2022-07-03T07:37:24;22.30;63.20
24664;DHT22;12791;50.992;13.788;2022-07-03T07:39:50;22.40;62.60
24664;DHT22;12791;50.992;13.788;2022-07-03T07:42:17;22.50;63.10
24664;DHT22;12791;50.992;13.788;2022-07-03T07:44:45;22.60;62.50
24664;DHT22;12791;50.992;13.788;2022-07-03T07:47:12;22.70;62.60
24664;DHT22;12791;50.992;13.788;2022-07-03T07:49:39;22.70;62.10
24664;DHT22;12791;50.992;13.788;2022-07-03T07:52:06;22.70;61.40
24664;DHT22;12791;50.992;13.788;2022-07-03T07:54:33;22.80;60.70
24664;DHT22;12791;50.992;13.788;2022-07-03T07:57:00;22.90;60.60
24664;DHT22;12791;50.992;13.788;2022-07-03T07:59:26;23.00;61.00
24664;DHT22;12791;50.992;13.788;2022-07-03T08:01:53;23.10;59.80
24664;DHT22;12791;50.992;13.788;2022-07-03T08:04:38;23.10;59.30
24664;DHT22;12791;50.992;13.788;2022-07-03T08:07:22;23.20;58.90
24664;DHT22;12791;50.992;13.788;2022-07-03T08:09:49;23.30;59.40
24664;DHT22;12791;50.992;13.788;2022-07-03T08:12:18;23.30;59.50
24664;DHT22;12791;50.992;13.788;2022-07-03T08:14:45;23.40;59.60
24664;DHT22;12791;50.992;13.788;2022-07-03T08:17:11;23.40;58.80
24664;DHT22;12791;50.992;13.788;2022-07-03T08:19:39;23.50;59.30
24664;DHT22;12791;50.992;13.788;2022-07-03T08:22:06;23.60;59.70
24664;DHT22;12791;50.992;13.788;2022-07-03T08:24:33;23.70;59.20
24664;DHT22;12791;50.992;13.788;2022-07-03T08:27:00;23.70;58.70
24664;DHT22;12791;50.992;13.788;2022-07-03T08:29:26;23.70;58.10
24664;DHT22;12791;50.992;13.788;2022-07-03T08:31:53;23.80;57.20
24664;DHT22;12791;50.992;13.788;2022-07-03T08:34:20;23.80;57.00
24664;DHT22;12791;50.992;13.788;2022-07-03T08:36:48;24.00;55.60
24664;DHT22;12791;50.992;13.788;2022-07-03T08:39:14;24.00;55.70
24664;DHT22;12791;50.992;13.788;2022-07-03T08:41:41;24.00;54.80
24664;DHT22;12791;50.992;13.788;2022-07-03T08:44:09;24.00;55.20
24664;DHT22;12791;50.992;13.788;2022-07-03T08:46:38;24.00;55.70
24664;DHT22;12791;50.992;13.788;2022-07-03T08:49:06;24.00;55.90
24664;DHT22;12791;50.992;13.788;2022-07-03T08:51:33;24.10;56.00
24664;DHT22;12791;50.992;13.788;2022-07-03T08:54:02;24.10;55.50
24664;DHT22;12791;50.992;13.788;2022-07-03T08:56:31;24.10;54.80
24664;DHT22;12791;50.992;13.788;2022-07-03T08:58:58;24.10;54.40
24664;DHT22;12791;50.992;13.788;2022-07-03T09:01:27;24.00;54.10
24664;DHT22;12791;50.992;13.788;2022-07-03T09:03:54;24.00;53.70
24664;DHT22;12791;50.992;13.788;2022-07-03T09:06:23;24.00;53.30
24664;DHT22;12791;50.992;13.788;2022-07-03T09:08:50;24.10;53.60
24664;DHT22;12791;50.992;13.788;2022-07-03T09:11:19;24.10;54.30
24664;DHT22;12791;50.992;13.788;2022-07-03T09:13:46;24.20;54.20
24664;DHT22;12791;50.992;13.788;2022-07-03T09:16:16;24.20;53.20
24664;DHT22;12791;50.992;13.788;2022-07-03T09:18:44;24.20;53.10
24664;DHT22;12791;50.992;13.788;2022-07-03T09:21:12;24.20;54.00
24664;DHT22;12791;50.992;13.788;2022-07-03T09:23:40;24.20;53.60
24664;DHT22;12791;50.992;13.788;2022-07-03T09:26:12;24.10;53.40
24664;DHT22;12791;50.992;13.788;2022-07-03T09:28:45;24.10;53.70
24664;DHT22;12791;50.992;13.788;2022-07-03T09:31:15;24.20;53.50
24664;DHT22;12791;50.992;13.788;2022-07-03T09:33:51;24.30;53.40
24664;DHT22;12791;50.992;13.788;2022-07-03T09:36:21;24.30;53.70
24664;DHT22;12791;50.992;13.788;2022-07-03T09:38:48;24.40;53.40
24664;DHT22;12791;50.992;13.788;2022-07-03T09:41:15;24.30;53.50
24664;DHT22;12791;50.992;13.788;2022-07-03T09:43:43;24.20;53.80
24664;DHT22;12791;50.992;13.788;2022-07-03T09:46:10;24.20;54.40
24664;DHT22;12791;50.992;13.788;2022-07-03T09:48:38;24.10;54.80
24664;DHT22;12791;50.992;13.788;2022-07-03T09:51:11;24.10;53.60
24664;DHT22;12791;50.992;13.788;2022-07-03T09:53:52;24.10;54.50
24664;DHT22;12791;50.992;13.788;2022-07-03T09:56:20;24.20;53.70
24664;DHT22;12791;50.992;13.788;2022-07-03T09:59:16;24.30;53.80
24664;DHT22;12791;50.992;13.788;2022-07-03T10:01:44;24.30;53.40
24664;DHT22;12791;50.992;13.788;2022-07-03T10:04:13;24.30;52.90
24664;DHT22;12791;50.992;13.788;2022-07-03T10:06:52;24.30;52.90
24664;DHT22;12791;50.992;13.788;2022-07-03T10:09:20;24.50;52.40
24664;DHT22;12791;50.992;13.788;2022-07-03T10:11:47;24.60;52.30
24664;DHT22;12791;50.992;13.788;2022-07-03T10:14:17;24.60;52.50
24664;DHT22;12791;50.992;13.788;2022-07-03T10:16:44;24.70;52.70
24664;DHT22;12791;50.992;13.788;2022-07-03T10:19:13;24.80;52.90
24664;DHT22;12791;50.992;13.788;2022-07-03T10:21:42;24.90;52.70
24664;DHT22;12791;50.992;13.788;2022-07-03T10:24:11;24.90;52.50
24664;DHT22;12791;50.992;13.788;2022-07-03T10:26:39;25.00;52.00
24664;DHT22;12791;50.992;13.788;2022-07-03T10:29:08;24.90;51.40
24664;DHT22;12791;50.992;13.788;2022-07-03T10:31:38;25.00;51.70
24664;DHT22;12791;50.992;13.788;2022-07-03T10:34:06;25.10;51.30
24664;DHT22;12791;50.992;13.788;2022-07-03T10:36:34;25.10;51.70
24664;DHT22;12791;50.992;13.788;2022-07-03T10:39:06;25.20;51.90
24664;DHT22;12791;50.992;13.788;2022-07-03T10:41:35;25.30;51.60
24664;DHT22;12791;50.992;13.788;2022-07-03T10:44:19;25.40;51.00
24664;DHT22;12791;50.992;13.788;2022-07-03T10:47:05;25.40;50.90
24664;DHT22;12791;50.992;13.788;2022-07-03T10:49:32;25.40;50.30
24664;DHT22;12791;50.992;13.788;2022-07-03T10:52:00;25.40;50.20
24664;DHT22;12791;50.992;13.788;2022-07-03T10:54:27;25.40;49.40
24664;DHT22;12791;50.992;13.788;2022-07-03T10:57:21;25.50;49.30
24664;DHT22;12791;50.992;13.788;2022-07-03T11:00:03;25.40;48.90
24664;DHT22;12791;50.992;13.788;2022-07-03T11:02:37;25.40;50.20
24664;DHT22;12791;50.992;13.788;2022-07-03T11:05:10;25.40;50.20
24664;DHT22;12791;50.992;13.788;2022-07-03T11:07:43;25.40;50.10
24664;DHT22;12791;50.992;13.788;2022-07-03T11:10:28;25.50;50.00
24664;DHT22;12791;50.992;13.788;2022-07-03T11:12:56;25.60;49.80
24664;DHT22;12791;50.992;13.788;2022-07-03T11:15:27;25.60;48.90
24664;DHT22;12791;50.992;13.788;2022-07-03T11:18:15;25.60;48.50
24664;DHT22;12791;50.992;13.788;2022-07-03T11:24:17;25.60;49.10
24664;DHT22;12791;50.992;13.788;2022-07-03T11:26:45;25.60;49.20
24664;DHT22;12791;50.992;13.788;2022-07-03T11:29:28;25.60;48.90
24664;DHT22;12791;50.992;13.788;2022-07-03T11:31:55;25.60;49.10
24664;DHT22;12791;50.992;13.788;2022-07-03T11:34:23;25.60;48.70
24664;DHT22;12791;50.992;13.788;2022-07-03T11:36:49;25.60;49.10
24664;DHT22;12791;50.992;13.788;2022-07-03T11:39:19;25.60;49.30
24664;DHT22;12791;50.992;13.788;2022-07-03T11:41:46;25.60;49.60
24664;DHT22;12791;50.992;13.788;2022-07-03T11:44:20;25.80;49.00
24664;DHT22;12791;50.992;13.788;2022-07-03T11:46:49;25.90;49.20
24664;DHT22;12791;50.992;13.788;2022-07-03T11:49:17;26.00;48.50
24664;DHT22;12791;50.992;13.788;2022-07-03T11:51:56;26.10;47.50
24664;DHT22;12791;50.992;13.788;2022-07-03T11:54:23;26.20;47.90
24664;DHT22;12791;50.992;13.788;2022-07-03T11:56:50;26.20;48.10
24664;DHT22;12791;50.992;13.788;2022-07-03T11:59:17;26.10;48.20
24664;DHT22;12791;50.992;13.788;2022-07-03T12:01:45;26.00;48.20
24664;DHT22;12791;50.992;13.788;2022-07-03T12:04:13;25.90;48.50
24664;DHT22;12791;50.992;13.788;2022-07-03T12:06:42;25.90;48.60
24664;DHT22;12791;50.992;13.788;2022-07-03T12:09:15;26.00;47.80
24664;DHT22;12791;50.992;13.788;2022-07-03T12:11:52;26.10;48.70
24664;DHT22;12791;50.992;13.788;2022-07-03T12:14:33;26.20;48.90
24664;DHT22;12791;50.992;13.788;2022-07-03T12:17:00;26.20;48.40
24664;DHT22;12791;50.992;13.788;2022-07-03T12:19:27;26.10;48.50
24664;DHT22;12791;50.992;13.788;2022-07-03T12:21:53;26.00;48.40
24664;DHT22;12791;50.992;13.788;2022-07-03T12:24:22;26.00;48.60
24664;DHT22;12791;50.992;13.788;2022-07-03T12:26:49;25.90;48.70
24664;DHT22;12791;50.992;13.788;2022-07-03T12:29:16;25.80;48.60
24664;DHT22;12791;50.992;13.788;2022-07-03T12:31:45;25.90;48.50
24664;DHT22;12791;50.992;13.788;2022-07-03T12:34:13;25.90;48.20
24664;DHT22;12791;50.992;13.788;2022-07-03T12:36:40;25.80;48.00
24664;DHT22;12791;50.992;13.788;2022-07-03T12:39:06;25.90;48.20
24664;DHT22;12791;50.992;13.788;2022-07-03T12:41:34;25.90;48.40
24664;DHT22;12791;50.992;13.788;2022-07-03T12:44:01;26.00;48.40
24664;DHT22;12791;50.992;13.788;2022-07-03T12:46:33;26.00;48.00
24664;DHT22;12791;50.992;13.788;2022-07-03T12:49:09;26.20;48.20
24664;DHT22;12791;50.992;13.788;2022-07-03T12:51:38;26.40;46.70
24664;DHT22;12791;50.992;13.788;2022-07-03T12:54:05;26.50;46.70
24664;DHT22;12791;50.992;13.788;2022-07-03T12:56:32;26.50;46.70
24664;DHT22;12791;50.992;13.788;2022-07-03T12:59:01;26.50;46.80
24664;DHT22;12791;50.992;13.788;2022-07-03T13:01:42;26.40;46.70
24664;DHT22;12791;50.992;13.788;2022-07-03T13:04:10;26.40;47.30
24664;DHT22;12791;50.992;13.788;2022-07-03T13:06:39;26.40;47.20
24664;DHT22;12791;50.992;13.788;2022-07-03T13:09:07;26.30;47.30
24664;DHT22;12791;50.992;13.788;2022-07-03T13:11:35;26.30;47.00
24664;DHT22;12791;50.992;13.788;2022-07-03T13:14:08;26.40;47.10
24664;DHT22;12791;50.992;13.788;2022-07-03T13:16:40;26.60;46.80
24664;DHT22;12791;50.992;13.788;2022-07-03T13:19:08;26.70;46.60
24664;DHT22;12791;50.992;13.788;2022-07-03T13:21:36;26.80;46.30
24664;DHT22;12791;50.992;13.788;2022-07-03T13:24:03;27.00;46.30
24664;DHT22;12791;50.992;13.788;2022-07-03T13:26:30;27.10;46.30
24664;DHT22;12791;50.992;13.788;2022-07-03T13:28:56;27.20;46.70
24664;DHT22;12791;50.992;13.788;2022-07-03T13:31:24;27.30;46.20
24664;DHT22;12791;50.992;13.788;2022-07-03T13:33:51;27.30;46.30
24664;DHT22;12791;50.992;13.788;2022-07-03T13:36:18;27.40;45.40
24664;DHT22;12791;50.992;13.788;2022-07-03T13:38:45;27.50;45.10
24664;DHT22;12791;50.992;13.788;2022-07-03T13:41:12;27.60;45.60
24664;DHT22;12791;50.992;13.788;2022-07-03T13:43:38;27.70;45.30
24664;DHT22;12791;50.992;13.788;2022-07-03T13:46:05;27.80;44.30
24664;DHT22;12791;50.992;13.788;2022-07-03T13:48:33;27.70;44.00
24664;DHT22;12791;50.992;13.788;2022-07-03T13:51:00;27.70;44.10
24664;DHT22;12791;50.992;13.788;2022-07-03T13:53:27;27.60;44.60
24664;DHT22;12791;50.992;13.788;2022-07-03T13:55:55;27.50;45.20
24664;DHT22;12791;50.992;13.788;2022-07-03T13:58:22;27.50;45.10
24664;DHT22;12791;50.992;13.788;2022-07-03T14:00:49;27.40;45.60
24664;DHT22;12791;50.992;13.788;2022-07-03T14:03:15;27.40;46.20
24664;DHT22;12791;50.992;13.788;2022-07-03T14:05:43;27.40;46.80
24664;DHT22;12791;50.992;13.788;2022-07-03T14:08:10;27.40;47.10
24664;DHT22;12791;50.992;13.788;2022-07-03T14:10:38;27.30;47.60
24664;DHT22;12791;50.992;13.788;2022-07-03T14:13:05;27.20;47.90
24664;DHT22;12791;50.992;13.788;2022-07-03T14:15:33;27.20;47.00
24664;DHT22;12791;50.992;13.788;2022-07-03T14:17:59;27.20;46.80
24664;DHT22;12791;50.992;13.788;2022-07-03T14:20:27;27.20;46.70
24664;DHT22;12791;50.992;13.788;2022-07-03T14:22:55;27.20;45.60
24664;DHT22;12791;50.992;13.788;2022-07-03T14:25:22;27.20;45.30
24664;DHT22;12791;50.992;13.788;2022-07-03T14:27:48;27.20;45.60
24664;DHT22;12791;50.992;13.788;2022-07-03T14:30:33;27.20;45.30
24664;DHT22;12791;50.992;13.788;2022-07-03T14:33:18;27.20;45.30
24664;DHT22;12791;50.992;13.788;2022-07-03T14:35:44;27.20;44.70
24664;DHT22;12791;50.992;13.788;2022-07-03T14:38:12;27.40;45.80
24664;DHT22;12791;50.992;13.788;2022-07-03T14:40:39;27.60;45.90
24664;DHT22;12791;50.992;13.788;2022-07-03T14:43:06;27.90;44.90
24664;DHT22;12791;50.992;13.788;2022-07-03T14:45:32;28.10;44.50
24664;DHT22;12791;50.992;13.788;2022-07-03T14:47:59;28.30;43.50
24664;DHT22;12791;50.992;13.788;2022-07-03T14:50:26;28.40;43.80
24664;DHT22;12791;50.992;13.788;2022-07-03T14:52:52;28.50;43.10
24664;DHT22;12791;50.992;13.788;2022-07-03T14:55:20;28.50;43.50
24664;DHT22;12791;50.992;13.788;2022-07-03T14:57:52;28.50;43.30
24664;DHT22;12791;50.992;13.788;2022-07-03T15:00:19;28.40;43.90
24664;DHT22;12791;50.992;13.788;2022-07-03T15:02:55;28.30;43.80
24664;DHT22;12791;50.992;13.788;2022-07-03T15:05:27;28.40;44.10
24664;DHT22;12791;50.992;13.788;2022-07-03T15:08:04;28.50;43.00
24664;DHT22;12791;50.992;13.788;2022-07-03T15:10:33;28.60;42.50
24664;DHT22;12791;50.992;13.788;2022-07-03T15:13:02;28.70;42.30
24664;DHT22;12791;50.992;13.788;2022-07-03T15:15:30;28.80;42.50
24664;DHT22;12791;50.992;13.788;2022-07-03T15:17:59;28.90;41.60
24664;DHT22;12791;50.992;13.788;2022-07-03T15:20:28;29.00;42.50
24664;DHT22;12791;50.992;13.788;2022-07-03T15:22:57;29.10;42.00
24664;DHT22;12791;50.992;13.788;2022-07-03T15:25:26;29.10;42.10
24664;DHT22;12791;50.992;13.788;2022-07-03T15:27:55;29.10;41.20
24664;DHT22;12791;50.992;13.788;2022-07-03T15:30:24;29.00;41.30